LA HONDA (LAH)

Elevation: 425' · SAN GREGORIO CR basin · Operator: CAL FIRE

Query executed Wednesday at 2:32:01

Provisional data, subject to change.
Select a sensor type for a plot of data.

Earlier

Date   /   Time   RAIN     TEMP     REL HUM     FUEL MS     FUEL TP     WIND SP     WIND DR     PEAK WS     PEAK WD     SOLAR R     BAT VOL    
(PST)INCHES   DEG F   %   %   DEG F   MPH   DEG   MPH   DEG   W/M^2   VOLTS  
12/06/2016 02:00 7.89 39 100 25 35 4 80 5 75 0.00 12.9
12/06/2016 03:00 7.89 38 100 25 34 4 91 6 93 0.00 12.9
12/06/2016 04:00 7.90 36 100 26 32 4 86 5 93 0.00 12.8
12/06/2016 05:00 7.90 35 100 26 31 4 84 5 84 0.00 12.8
12/06/2016 06:00 7.90 34 100 26 30 5 90 6 84 0.00 12.8
12/06/2016 07:00 7.90 34 100 26 30 3 66 6 71 0.00 12.8
12/06/2016 08:00 7.90 36 100 26 33 2 84 4 77 33.00 13.1
12/06/2016 09:00 7.90 45 95 25 48 1 117 2 90 176.00 14.3
12/06/2016 10:00 7.90 51 68 26 47 4 241 7 213 340.00 14.1
12/06/2016 11:00 7.90 54 59 26 51 4 290 11 303 411.00 14.1
12/06/2016 12:00 7.90 54 54 21 58 4 281 11 326 428.00 13.9
12/06/2016 13:00 7.90 56 57 15 64 6 248 14 223 477.00 13.9
12/06/2016 14:00 7.90 56 58 13 66 5 252 11 240 424.00 14.3
12/06/2016 15:00 7.90 55 59 12 64 4 247 10 255 296.00 14.1
12/06/2016 16:00 7.90 52 61 11 57 4 252 10 236 175.00 14.5
12/06/2016 17:00 7.90 44 80 11 39 2 67 6 252 23.00 13.5
12/06/2016 18:00 7.90 41 92 13 36 3 74 4 80 0.00 13.3
12/06/2016 19:00 7.90 40 96 15 36 3 68 5 102 0.00 13.2
12/06/2016 20:00 7.90 38 98 18 34 4 82 5 77 0.00 13.1
12/06/2016 21:00 7.90 39 99 18 35 4 87 5 84 0.00 13.1
12/06/2016 22:00 7.90 37 100 20 33 4 80 6 113 0.00 13.0
12/06/2016 23:00 7.90 37 100 22 35 3 76 6 86 0.00 13.0
12/07/2016 00:00 7.90 37 100 22 33 5 90 6 72 0.00 12.9
12/07/2016 01:00 7.90 36 100 23 32 4 89 6 84 0.00 12.9
12/07/2016 02:00 7.90 36 100 24 32 4 72 6 88 0.00 12.9

Later | Latest

Warning! This data is preliminary and subject to revision.

Show LAH Map | 24 Hours LAH Data | Plot all LAH Sensors | Daily LAH Data | LAH Info